sensor_id;sensor_type;location;lat;lon;timestamp;temperature;humidity
23371;DHT22;11858;51.056;3.712;2022-10-13T00:01:22;14.30;99.90
23371;DHT22;11858;51.056;3.712;2022-10-13T00:03:48;14.40;99.90
23371;DHT22;11858;51.056;3.712;2022-10-13T00:06:17;14.40;99.90
23371;DHT22;11858;51.056;3.712;2022-10-13T00:08:44;14.40;99.90
23371;DHT22;11858;51.056;3.712;2022-10-13T00:11:19;14.50;99.90
23371;DHT22;11858;51.056;3.712;2022-10-13T00:13:45;14.50;99.90
23371;DHT22;11858;51.056;3.712;2022-10-13T00:16:14;14.30;99.90
23371;DHT22;11858;51.056;3.712;2022-10-13T00:18:40;14.00;99.90
23371;DHT22;11858;51.056;3.712;2022-10-13T00:21:11;14.10;99.90
23371;DHT22;11858;51.056;3.712;2022-10-13T00:23:38;14.20;99.90
23371;DHT22;11858;51.056;3.712;2022-10-13T00:26:08;14.10;99.90
23371;DHT22;11858;51.056;3.712;2022-10-13T00:28:34;14.10;99.90
23371;DHT22;11858;51.056;3.712;2022-10-13T00:31:00;13.90;99.90
23371;DHT22;11858;51.056;3.712;2022-10-13T00:33:26;13.90;99.90
23371;DHT22;11858;51.056;3.712;2022-10-13T00:35:52;14.00;99.90
23371;DHT22;11858;51.056;3.712;2022-10-13T00:38:19;14.00;99.90
23371;DHT22;11858;51.056;3.712;2022-10-13T00:40:53;13.90;99.90
23371;DHT22;11858;51.056;3.712;2022-10-13T00:43:21;14.00;99.90
23371;DHT22;11858;51.056;3.712;2022-10-13T00:45:48;14.00;99.90
23371;DHT22;11858;51.056;3.712;2022-10-13T00:48:27;14.20;99.90
23371;DHT22;11858;51.056;3.712;2022-10-13T00:50:55;14.10;99.90
23371;DHT22;11858;51.056;3.712;2022-10-13T00:53:24;14.10;99.90
23371;DHT22;11858;51.056;3.712;2022-10-13T00:55:51;14.10;99.90
23371;DHT22;11858;51.056;3.712;2022-10-13T00:58:18;14.20;99.90
23371;DHT22;11858;51.056;3.712;2022-10-13T01:00:49;14.20;99.90
23371;DHT22;11858;51.056;3.712;2022-10-13T01:03:17;14.20;99.90
23371;DHT22;11858;51.056;3.712;2022-10-13T01:05:43;14.20;99.90
23371;DHT22;11858;51.056;3.712;2022-10-13T01:08:10;14.10;99.90
23371;DHT22;11858;51.056;3.712;2022-10-13T01:13:33;14.10;99.90
23371;DHT22;11858;51.056;3.712;2022-10-13T01:21:34;14.00;99.90
23371;DHT22;11858;51.056;3.712;2022-10-13T01:27:37;13.80;99.90
23371;DHT22;11858;51.056;3.712;2022-10-13T01:30:18;13.90;99.90
23371;DHT22;11858;51.056;3.712;2022-10-13T01:38:22;13.70;99.90
23371;DHT22;11858;51.056;3.712;2022-10-13T01:41:38;13.70;99.90
23371;DHT22;11858;51.056;3.712;2022-10-13T01:46:38;13.90;99.90
23371;DHT22;11858;51.056;3.712;2022-10-13T01:49:08;13.70;99.90
23371;DHT22;11858;51.056;3.712;2022-10-13T01:51:35;13.60;99.90
23371;DHT22;11858;51.056;3.712;2022-10-13T01:54:01;13.70;99.90
23371;DHT22;11858;51.056;3.712;2022-10-13T01:56:27;13.60;99.90
23371;DHT22;11858;51.056;3.712;2022-10-13T01:58:55;13.70;99.90
23371;DHT22;11858;51.056;3.712;2022-10-13T02:04:20;13.70;99.90
23371;DHT22;11858;51.056;3.712;2022-10-13T02:06:57;13.70;99.90
23371;DHT22;11858;51.056;3.712;2022-10-13T02:09:39;13.80;99.90
23371;DHT22;11858;51.056;3.712;2022-10-13T02:12:10;13.80;99.90
23371;DHT22;11858;51.056;3.712;2022-10-13T02:14:40;13.90;99.90
23371;DHT22;11858;51.056;3.712;2022-10-13T02:17:07;13.90;99.90
23371;DHT22;11858;51.056;3.712;2022-10-13T02:19:35;13.80;99.90
23371;DHT22;11858;51.056;3.712;2022-10-13T02:22:02;13.80;99.90
23371;DHT22;11858;51.056;3.712;2022-10-13T02:24:28;13.70;99.90
23371;DHT22;11858;51.056;3.712;2022-10-13T02:26:54;13.80;99.90
23371;DHT22;11858;51.056;3.712;2022-10-13T02:29:20;13.80;99.90
23371;DHT22;11858;51.056;3.712;2022-10-13T02:31:46;13.90;99.90
23371;DHT22;11858;51.056;3.712;2022-10-13T02:34:13;14.00;99.90
23371;DHT22;11858;51.056;3.712;2022-10-13T02:36:39;13.90;99.90
23371;DHT22;11858;51.056;3.712;2022-10-13T02:39:09;13.80;99.90
23371;DHT22;11858;51.056;3.712;2022-10-13T02:41:35;13.80;99.90
23371;DHT22;11858;51.056;3.712;2022-10-13T02:44:01;13.90;99.90
23371;DHT22;11858;51.056;3.712;2022-10-13T02:46:26;13.90;99.90
23371;DHT22;11858;51.056;3.712;2022-10-13T02:48:52;13.90;99.90
23371;DHT22;11858;51.056;3.712;2022-10-13T02:51:18;13.80;99.90
23371;DHT22;11858;51.056;3.712;2022-10-13T02:53:43;13.90;99.90
23371;DHT22;11858;51.056;3.712;2022-10-13T02:56:09;13.80;99.90
23371;DHT22;11858;51.056;3.712;2022-10-13T02:58:35;13.80;99.90
23371;DHT22;11858;51.056;3.712;2022-10-13T03:01:05;13.80;99.90
23371;DHT22;11858;51.056;3.712;2022-10-13T03:03:32;13.90;99.90
23371;DHT22;11858;51.056;3.712;2022-10-13T03:05:58;14.00;99.90
23371;DHT22;11858;51.056;3.712;2022-10-13T03:08:23;13.90;99.90
23371;DHT22;11858;51.056;3.712;2022-10-13T03:10:49;13.70;99.90
23371;DHT22;11858;51.056;3.712;2022-10-13T03:13:15;13.80;99.90
23371;DHT22;11858;51.056;3.712;2022-10-13T03:15:40;14.00;99.90
23371;DHT22;11858;51.056;3.712;2022-10-13T03:18:06;13.90;99.90
23371;DHT22;11858;51.056;3.712;2022-10-13T03:20:31;13.90;99.90
23371;DHT22;11858;51.056;3.712;2022-10-13T03:22:57;14.00;99.90
23371;DHT22;11858;51.056;3.712;2022-10-13T03:25:23;13.90;99.90
23371;DHT22;11858;51.056;3.712;2022-10-13T03:27:49;13.80;99.90
23371;DHT22;11858;51.056;3.712;2022-10-13T03:30:15;13.90;99.90
23371;DHT22;11858;51.056;3.712;2022-10-13T03:32:40;14.00;99.90
23371;DHT22;11858;51.056;3.712;2022-10-13T03:35:06;13.90;99.90
23371;DHT22;11858;51.056;3.712;2022-10-13T03:37:32;13.80;99.90
23371;DHT22;11858;51.056;3.712;2022-10-13T03:39:58;13.80;99.90
23371;DHT22;11858;51.056;3.712;2022-10-13T03:42:24;13.80;99.90
23371;DHT22;11858;51.056;3.712;2022-10-13T03:44:50;13.90;99.90
23371;DHT22;11858;51.056;3.712;2022-10-13T03:47:15;13.90;99.90
23371;DHT22;11858;51.056;3.712;2022-10-13T03:49:41;13.90;99.90
23371;DHT22;11858;51.056;3.712;2022-10-13T03:52:06;13.70;99.90
23371;DHT22;11858;51.056;3.712;2022-10-13T03:54:32;13.70;99.90
23371;DHT22;11858;51.056;3.712;2022-10-13T03:56:58;13.80;99.90
23371;DHT22;11858;51.056;3.712;2022-10-13T03:59:24;13.80;99.90
23371;DHT22;11858;51.056;3.712;2022-10-13T04:01:50;13.80;99.90
23371;DHT22;11858;51.056;3.712;2022-10-13T04:04:15;13.80;99.90
23371;DHT22;11858;51.056;3.712;2022-10-13T04:06:41;13.80;99.90
23371;DHT22;11858;51.056;3.712;2022-10-13T04:09:07;13.80;99.90
23371;DHT22;11858;51.056;3.712;2022-10-13T04:11:33;13.90;99.90
23371;DHT22;11858;51.056;3.712;2022-10-13T04:13:59;14.00;99.90
23371;DHT22;11858;51.056;3.712;2022-10-13T04:16:28;13.80;99.90
23371;DHT22;11858;51.056;3.712;2022-10-13T04:19:02;14.00;99.90
23371;DHT22;11858;51.056;3.712;2022-10-13T04:21:30;14.00;99.90
23371;DHT22;11858;51.056;3.712;2022-10-13T04:23:57;13.90;99.90
23371;DHT22;11858;51.056;3.712;2022-10-13T04:26:24;13.90;99.90
23371;DHT22;11858;51.056;3.712;2022-10-13T04:28:51;13.90;99.90
23371;DHT22;11858;51.056;3.712;2022-10-13T04:31:18;13.90;99.90
23371;DHT22;11858;51.056;3.712;2022-10-13T04:33:46;13.90;99.90
23371;DHT22;11858;51.056;3.712;2022-10-13T04:36:13;14.10;99.90
23371;DHT22;11858;51.056;3.712;2022-10-13T04:38:40;14.10;99.90
23371;DHT22;11858;51.056;3.712;2022-10-13T04:41:06;14.10;99.90
23371;DHT22;11858;51.056;3.712;2022-10-13T04:43:33;14.00;99.90
23371;DHT22;11858;51.056;3.712;2022-10-13T04:46:03;13.90;99.90
23371;DHT22;11858;51.056;3.712;2022-10-13T04:48:29;13.90;99.90
23371;DHT22;11858;51.056;3.712;2022-10-13T04:51:03;13.90;99.90
23371;DHT22;11858;51.056;3.712;2022-10-13T04:53:30;13.80;99.90
23371;DHT22;11858;51.056;3.712;2022-10-13T04:55:58;14.00;99.90
23371;DHT22;11858;51.056;3.712;2022-10-13T04:58:24;14.00;99.90
23371;DHT22;11858;51.056;3.712;2022-10-13T05:00:50;14.00;99.90
23371;DHT22;11858;51.056;3.712;2022-10-13T05:03:16;13.90;99.90
23371;DHT22;11858;51.056;3.712;2022-10-13T05:05:41;14.00;99.90
23371;DHT22;11858;51.056;3.712;2022-10-13T05:08:07;14.10;99.90
23371;DHT22;11858;51.056;3.712;2022-10-13T05:10:33;14.00;99.90
23371;DHT22;11858;51.056;3.712;2022-10-13T05:12:59;13.80;99.90
23371;DHT22;11858;51.056;3.712;2022-10-13T05:15:25;13.90;99.90
23371;DHT22;11858;51.056;3.712;2022-10-13T05:17:50;14.00;99.90
23371;DHT22;11858;51.056;3.712;2022-10-13T05:20:16;13.90;99.90
23371;DHT22;11858;51.056;3.712;2022-10-13T05:22:43;13.90;99.90
23371;DHT22;11858;51.056;3.712;2022-10-13T05:25:08;13.80;99.90
23371;DHT22;11858;51.056;3.712;2022-10-13T05:27:34;13.80;99.90
23371;DHT22;11858;51.056;3.712;2022-10-13T05:30:00;13.80;99.90
23371;DHT22;11858;51.056;3.712;2022-10-13T05:32:25;13.70;99.90
23371;DHT22;11858;51.056;3.712;2022-10-13T05:34:51;13.80;99.90
23371;DHT22;11858;51.056;3.712;2022-10-13T05:37:17;14.00;99.90
23371;DHT22;11858;51.056;3.712;2022-10-13T05:39:43;13.90;99.90
23371;DHT22;11858;51.056;3.712;2022-10-13T05:42:09;14.00;99.90
23371;DHT22;11858;51.056;3.712;2022-10-13T05:44:35;14.00;99.90
23371;DHT22;11858;51.056;3.712;2022-10-13T05:47:02;13.90;99.90
23371;DHT22;11858;51.056;3.712;2022-10-13T05:49:28;13.90;99.90
23371;DHT22;11858;51.056;3.712;2022-10-13T05:52:01;13.90;99.90
23371;DHT22;11858;51.056;3.712;2022-10-13T05:54:41;13.90;99.90
23371;DHT22;11858;51.056;3.712;2022-10-13T05:59:45;13.90;99.90
23371;DHT22;11858;51.056;3.712;2022-10-13T06:02:14;14.00;99.90
23371;DHT22;11858;51.056;3.712;2022-10-13T06:04:44;14.00;99.90
23371;DHT22;11858;51.056;3.712;2022-10-13T06:07:11;14.00;99.90
23371;DHT22;11858;51.056;3.712;2022-10-13T06:09:37;13.80;99.90
23371;DHT22;11858;51.056;3.712;2022-10-13T06:12:05;13.70;99.90
23371;DHT22;11858;51.056;3.712;2022-10-13T06:14:31;13.70;99.90
23371;DHT22;11858;51.056;3.712;2022-10-13T06:16:57;13.70;99.90
23371;DHT22;11858;51.056;3.712;2022-10-13T06:19:22;13.90;99.90
23371;DHT22;11858;51.056;3.712;2022-10-13T06:21:48;13.80;99.90
23371;DHT22;11858;51.056;3.712;2022-10-13T06:24:14;13.70;99.90
23371;DHT22;11858;51.056;3.712;2022-10-13T06:26:40;13.70;99.90
23371;DHT22;11858;51.056;3.712;2022-10-13T06:29:05;13.80;99.90
23371;DHT22;11858;51.056;3.712;2022-10-13T06:31:31;13.70;99.90
23371;DHT22;11858;51.056;3.712;2022-10-13T06:33:57;13.70;99.90
23371;DHT22;11858;51.056;3.712;2022-10-13T06:36:23;13.90;99.90
23371;DHT22;11858;51.056;3.712;2022-10-13T06:38:49;13.90;99.90
23371;DHT22;11858;51.056;3.712;2022-10-13T06:41:15;13.80;99.90
23371;DHT22;11858;51.056;3.712;2022-10-13T06:43:40;13.80;99.90
23371;DHT22;11858;51.056;3.712;2022-10-13T06:46:06;13.80;99.90
23371;DHT22;11858;51.056;3.712;2022-10-13T06:48:32;13.80;99.90
23371;DHT22;11858;51.056;3.712;2022-10-13T06:51:07;14.00;99.90
23371;DHT22;11858;51.056;3.712;2022-10-13T06:53:33;13.80;99.90
23371;DHT22;11858;51.056;3.712;2022-10-13T06:56:02;13.90;99.90
23371;DHT22;11858;51.056;3.712;2022-10-13T06:58:28;13.90;99.90
23371;DHT22;11858;51.056;3.712;2022-10-13T07:00:54;14.00;99.90
23371;DHT22;11858;51.056;3.712;2022-10-13T07:03:20;14.00;99.90
23371;DHT22;11858;51.056;3.712;2022-10-13T07:05:45;14.00;99.90
23371;DHT22;11858;51.056;3.712;2022-10-13T07:08:12;14.00;99.90
23371;DHT22;11858;51.056;3.712;2022-10-13T07:10:38;14.00;99.90
23371;DHT22;11858;51.056;3.712;2022-10-13T07:13:04;13.90;99.90
23371;DHT22;11858;51.056;3.712;2022-10-13T07:15:30;13.90;99.90
23371;DHT22;11858;51.056;3.712;2022-10-13T07:17:56;14.00;99.90
23371;DHT22;11858;51.056;3.712;2022-10-13T07:20:23;14.10;99.90
23371;DHT22;11858;51.056;3.712;2022-10-13T07:22:51;14.10;99.90
23371;DHT22;11858;51.056;3.712;2022-10-13T07:25:17;14.40;99.90
23371;DHT22;11858;51.056;3.712;2022-10-13T07:27:43;14.30;99.90
23371;DHT22;11858;51.056;3.712;2022-10-13T07:30:09;14.20;99.90
23371;DHT22;11858;51.056;3.712;2022-10-13T07:32:35;14.00;99.90
23371;DHT22;11858;51.056;3.712;2022-10-13T07:35:02;13.90;99.90
23371;DHT22;11858;51.056;3.712;2022-10-13T07:37:28;13.90;99.90
23371;DHT22;11858;51.056;3.712;2022-10-13T07:39:53;14.00;99.90
23371;DHT22;11858;51.056;3.712;2022-10-13T07:42:19;14.00;99.90
23371;DHT22;11858;51.056;3.712;2022-10-13T07:44:45;14.10;99.90
23371;DHT22;11858;51.056;3.712;2022-10-13T07:47:10;14.10;99.90
23371;DHT22;11858;51.056;3.712;2022-10-13T07:49:36;14.20;99.90
23371;DHT22;11858;51.056;3.712;2022-10-13T07:52:02;14.20;99.90
23371;DHT22;11858;51.056;3.712;2022-10-13T07:54:28;14.20;99.90
23371;DHT22;11858;51.056;3.712;2022-10-13T07:56:54;14.30;99.90
23371;DHT22;11858;51.056;3.712;2022-10-13T07:59:20;14.50;99.90
23371;DHT22;11858;51.056;3.712;2022-10-13T08:01:46;14.50;99.90
23371;DHT22;11858;51.056;3.712;2022-10-13T08:04:11;14.40;99.90
23371;DHT22;11858;51.056;3.712;2022-10-13T08:06:37;14.50;99.90
23371;DHT22;11858;51.056;3.712;2022-10-13T08:09:03;14.50;99.90
23371;DHT22;11858;51.056;3.712;2022-10-13T08:11:29;14.70;99.90
23371;DHT22;11858;51.056;3.712;2022-10-13T08:13:56;14.80;99.90
23371;DHT22;11858;51.056;3.712;2022-10-13T08:16:26;14.90;99.90
23371;DHT22;11858;51.056;3.712;2022-10-13T08:18:52;14.90;99.90
23371;DHT22;11858;51.056;3.712;2022-10-13T08:21:19;15.00;99.90
23371;DHT22;11858;51.056;3.712;2022-10-13T08:23:46;15.00;99.90
23371;DHT22;11858;51.056;3.712;2022-10-13T08:26:23;15.10;99.90
23371;DHT22;11858;51.056;3.712;2022-10-13T08:28:50;15.40;99.90
23371;DHT22;11858;51.056;3.712;2022-10-13T08:31:16;15.40;99.90
23371;DHT22;11858;51.056;3.712;2022-10-13T08:33:42;15.20;99.90
23371;DHT22;11858;51.056;3.712;2022-10-13T08:36:07;15.20;99.90
23371;DHT22;11858;51.056;3.712;2022-10-13T08:38:34;15.10;99.90
23371;DHT22;11858;51.056;3.712;2022-10-13T08:41:00;15.20;99.90
23371;DHT22;11858;51.056;3.712;2022-10-13T08:43:26;15.10;99.90
23371;DHT22;11858;51.056;3.712;2022-10-13T08:45:59;15.00;99.90
23371;DHT22;11858;51.056;3.712;2022-10-13T08:48:32;15.10;99.90
23371;DHT22;11858;51.056;3.712;2022-10-13T08:51:02;15.00;99.90
23371;DHT22;11858;51.056;3.712;2022-10-13T08:56:09;15.20;99.90
23371;DHT22;11858;51.056;3.712;2022-10-13T08:58:40;15.20;99.90
23371;DHT22;11858;51.056;3.712;2022-10-13T09:01:19;15.20;99.90
23371;DHT22;11858;51.056;3.712;2022-10-13T09:03:55;15.10;99.90
23371;DHT22;11858;51.056;3.712;2022-10-13T09:06:28;14.90;99.90
23371;DHT22;11858;51.056;3.712;2022-10-13T09:09:07;14.80;99.90
23371;DHT22;11858;51.056;3.712;2022-10-13T09:11:36;14.70;99.90
23371;DHT22;11858;51.056;3.712;2022-10-13T09:14:09;14.80;99.90
23371;DHT22;11858;51.056;3.712;2022-10-13T09:16:40;15.00;99.90
23371;DHT22;11858;51.056;3.712;2022-10-13T09:21:43;14.90;99.90
23371;DHT22;11858;51.056;3.712;2022-10-13T09:24:14;14.80;99.90
23371;DHT22;11858;51.056;3.712;2022-10-13T09:26:41;14.90;99.90
23371;DHT22;11858;51.056;3.712;2022-10-13T09:29:19;14.80;99.90
23371;DHT22;11858;51.056;3.712;2022-10-13T09:31:46;14.80;99.90
23371;DHT22;11858;51.056;3.712;2022-10-13T09:34:23;15.00;99.90
23371;DHT22;11858;51.056;3.712;2022-10-13T09:37:05;15.10;99.90
23371;DHT22;11858;51.056;3.712;2022-10-13T09:39:38;15.30;99.90
23371;DHT22;11858;51.056;3.712;2022-10-13T09:42:25;15.40;99.90
23371;DHT22;11858;51.056;3.712;2022-10-13T09:45:15;15.40;99.90
23371;DHT22;11858;51.056;3.712;2022-10-13T09:47:56;15.50;99.90
23371;DHT22;11858;51.056;3.712;2022-10-13T09:50:30;15.50;99.90
23371;DHT22;11858;51.056;3.712;2022-10-13T09:55:44;15.70;99.90
23371;DHT22;11858;51.056;3.712;2022-10-13T10:00:47;15.60;99.90
23371;DHT22;11858;51.056;3.712;2022-10-13T10:03:30;15.80;99.90
23371;DHT22;11858;51.056;3.712;2022-10-13T10:06:05;15.90;99.90
23371;DHT22;11858;51.056;3.712;2022-10-13T10:09:00;15.90;99.90
23371;DHT22;11858;51.056;3.712;2022-10-13T10:11:36;16.00;99.90
23371;DHT22;11858;51.056;3.712;2022-10-13T10:14:31;16.00;99.90
23371;DHT22;11858;51.056;3.712;2022-10-13T10:17:21;15.80;99.90
23371;DHT22;11858;51.056;3.712;2022-10-13T10:25:49;15.50;99.90
23371;DHT22;11858;51.056;3.712;2022-10-13T10:37:02;15.40;99.90
23371;DHT22;11858;51.056;3.712;2022-10-13T10:45:18;15.50;99.90
23371;DHT22;11858;51.056;3.712;2022-10-13T10:47:47;15.50;99.90
23371;DHT22;11858;51.056;3.712;2022-10-13T10:50:16;15.40;99.90
23371;DHT22;11858;51.056;3.712;2022-10-13T10:53:06;15.70;99.90
23371;DHT22;11858;51.056;3.712;2022-10-13T10:58:35;15.80;99.90
23371;DHT22;11858;51.056;3.712;2022-10-13T11:04:02;16.00;99.90
23371;DHT22;11858;51.056;3.712;2022-10-13T11:06:36;15.90;99.90
23371;DHT22;11858;51.056;3.712;2022-10-13T11:09:03;15.80;99.90
23371;DHT22;11858;51.056;3.712;2022-10-13T11:11:31;15.60;99.90
23371;DHT22;11858;51.056;3.712;2022-10-13T11:17:00;15.90;99.90
23371;DHT22;11858;51.056;3.712;2022-10-13T11:19:28;16.00;99.90
23371;DHT22;11858;51.056;3.712;2022-10-13T11:29:58;15.80;99.90
23371;DHT22;11858;51.056;3.712;2022-10-13T11:35:20;15.90;99.90
23371;DHT22;11858;51.056;3.712;2022-10-13T11:43:14;16.10;99.90
23371;DHT22;11858;51.056;3.712;2022-10-13T11:56:47;16.40;99.90
23371;DHT22;11858;51.056;3.712;2022-10-13T11:59:21;16.50;99.90
23371;DHT22;11858;51.056;3.712;2022-10-13T12:01:53;16.40;99.90
23371;DHT22;11858;51.056;3.712;2022-10-13T12:04:20;16.30;99.90
23371;DHT22;11858;51.056;3.712;2022-10-13T12:06:59;16.20;99.90
23371;DHT22;11858;51.056;3.712;2022-10-13T12:09:26;16.30;99.90
23371;DHT22;11858;51.056;3.712;2022-10-13T12:12:13;16.20;99.90
23371;DHT22;11858;51.056;3.712;2022-10-13T12:14:42;16.20;99.90
23371;DHT22;11858;51.056;3.712;2022-10-13T12:17:29;16.20;99.90
23371;DHT22;11858;51.056;3.712;2022-10-13T12:19:59;16.20;99.90
23371;DHT22;11858;51.056;3.712;2022-10-13T12:22:26;16.40;99.90
23371;DHT22;11858;51.056;3.712;2022-10-13T12:25:04;16.60;99.90
23371;DHT22;11858;51.056;3.712;2022-10-13T12:27:38;16.50;99.90
23371;DHT22;11858;51.056;3.712;2022-10-13T12:30:23;16.50;99.90
23371;DHT22;11858;51.056;3.712;2022-10-13T12:32:51;16.40;99.90
23371;DHT22;11858;51.056;3.712;2022-10-13T12:35:29;16.50;99.90
23371;DHT22;11858;51.056;3.712;2022-10-13T12:37:56;16.30;99.90
23371;DHT22;11858;51.056;3.712;2022-10-13T12:40:22;16.40;99.90
23371;DHT22;11858;51.056;3.712;2022-10-13T12:42:49;16.40;99.90
23371;DHT22;11858;51.056;3.712;2022-10-13T12:45:20;16.40;99.90
23371;DHT22;11858;51.056;3.712;2022-10-13T12:47:50;16.30;99.90
23371;DHT22;11858;51.056;3.712;2022-10-13T12:55:52;16.20;99.90
23371;DHT22;11858;51.056;3.712;2022-10-13T12:58:31;16.20;99.90
23371;DHT22;11858;51.056;3.712;2022-10-13T13:01:07;16.10;99.90
23371;DHT22;11858;51.056;3.712;2022-10-13T13:03:35;16.10;99.90
23371;DHT22;11858;51.056;3.712;2022-10-13T13:06:22;16.10;99.90
23371;DHT22;11858;51.056;3.712;2022-10-13T13:11:37;15.80;99.90
23371;DHT22;11858;51.056;3.712;2022-10-13T13:14:23;15.70;99.90
23371;DHT22;11858;51.056;3.712;2022-10-13T13:19:41;15.40;99.90
23371;DHT22;11858;51.056;3.712;2022-10-13T13:22:07;15.50;99.90
23371;DHT22;11858;51.056;3.712;2022-10-13T13:24:33;15.40;99.90
23371;DHT22;11858;51.056;3.712;2022-10-13T13:27:18;15.60;99.90
23371;DHT22;11858;51.056;3.712;2022-10-13T13:29:45;15.60;99.90
23371;DHT22;11858;51.056;3.712;2022-10-13T13:32:13;15.60;99.90
23371;DHT22;11858;51.056;3.712;2022-10-13T13:34:39;15.70;99.90
23371;DHT22;11858;51.056;3.712;2022-10-13T13:37:07;15.80;99.90
23371;DHT22;11858;51.056;3.712;2022-10-13T13:39:34;16.00;99.90
23371;DHT22;11858;51.056;3.712;2022-10-13T13:41:59;15.90;99.90
23371;DHT22;11858;51.056;3.712;2022-10-13T13:44:25;15.80;99.90
23371;DHT22;11858;51.056;3.712;2022-10-13T13:46:51;15.80;99.90
23371;DHT22;11858;51.056;3.712;2022-10-13T13:49:16;15.80;99.90
23371;DHT22;11858;51.056;3.712;2022-10-13T13:51:42;15.80;99.90
23371;DHT22;11858;51.056;3.712;2022-10-13T13:54:08;15.60;99.90
23371;DHT22;11858;51.056;3.712;2022-10-13T13:56:33;15.60;99.90
23371;DHT22;11858;51.056;3.712;2022-10-13T13:58:59;15.60;99.90
23371;DHT22;11858;51.056;3.712;2022-10-13T14:01:25;15.80;99.90
23371;DHT22;11858;51.056;3.712;2022-10-13T14:03:50;15.70;99.90
23371;DHT22;11858;51.056;3.712;2022-10-13T14:06:19;15.60;99.90
23371;DHT22;11858;51.056;3.712;2022-10-13T14:08:45;15.50;99.90
23371;DHT22;11858;51.056;3.712;2022-10-13T14:11:11;15.50;99.90
23371;DHT22;11858;51.056;3.712;2022-10-13T14:13:37;15.60;99.90
23371;DHT22;11858;51.056;3.712;2022-10-13T14:16:03;15.50;99.90
23371;DHT22;11858;51.056;3.712;2022-10-13T14:18:29;15.50;99.90
23371;DHT22;11858;51.056;3.712;2022-10-13T14:20:55;15.60;99.90
23371;DHT22;11858;51.056;3.712;2022-10-13T14:23:21;15.60;99.90
23371;DHT22;11858;51.056;3.712;2022-10-13T14:25:47;15.50;99.90
23371;DHT22;11858;51.056;3.712;2022-10-13T14:28:13;15.50;99.90
23371;DHT22;11858;51.056;3.712;2022-10-13T14:30:40;15.40;99.90
23371;DHT22;11858;51.056;3.712;2022-10-13T14:33:07;15.60;99.90
23371;DHT22;11858;51.056;3.712;2022-10-13T14:35:33;15.60;99.90
23371;DHT22;11858;51.056;3.712;2022-10-13T14:37:59;15.60;99.90
23371;DHT22;11858;51.056;3.712;2022-10-13T14:40:25;15.40;99.90
23371;DHT22;11858;51.056;3.712;2022-10-13T14:42:50;15.50;99.90
23371;DHT22;11858;51.056;3.712;2022-10-13T14:45:16;15.40;99.90
23371;DHT22;11858;51.056;3.712;2022-10-13T14:47:42;15.40;99.90
23371;DHT22;11858;51.056;3.712;2022-10-13T14:50:08;15.50;99.90
23371;DHT22;11858;51.056;3.712;2022-10-13T14:52:34;15.40;99.90
23371;DHT22;11858;51.056;3.712;2022-10-13T14:55:00;15.50;99.90
23371;DHT22;11858;51.056;3.712;2022-10-13T14:57:26;15.40;99.90
23371;DHT22;11858;51.056;3.712;2022-10-13T14:59:52;15.40;99.90
23371;DHT22;11858;51.056;3.712;2022-10-13T15:02:18;15.30;99.90
23371;DHT22;11858;51.056;3.712;2022-10-13T15:04:43;15.40;99.90
23371;DHT22;11858;51.056;3.712;2022-10-13T15:07:09;15.50;99.90
23371;DHT22;11858;51.056;3.712;2022-10-13T15:09:35;15.60;99.90
23371;DHT22;11858;51.056;3.712;2022-10-13T15:12:00;15.60;99.90
23371;DHT22;11858;51.056;3.712;2022-10-13T15:14:26;15.50;99.90
23371;DHT22;11858;51.056;3.712;2022-10-13T15:16:52;15.40;99.90
23371;DHT22;11858;51.056;3.712;2022-10-13T15:19:17;15.40;99.90
23371;DHT22;11858;51.056;3.712;2022-10-13T15:21:43;15.30;99.90
23371;DHT22;11858;51.056;3.712;2022-10-13T15:24:10;15.20;99.90
23371;DHT22;11858;51.056;3.712;2022-10-13T15:26:36;15.20;99.90
23371;DHT22;11858;51.056;3.712;2022-10-13T15:29:02;15.20;99.90
23371;DHT22;11858;51.056;3.712;2022-10-13T15:31:28;15.20;99.90
23371;DHT22;11858;51.056;3.712;2022-10-13T15:33:55;15.20;99.90
23371;DHT22;11858;51.056;3.712;2022-10-13T15:36:22;15.10;99.90
23371;DHT22;11858;51.056;3.712;2022-10-13T15:38:48;15.20;99.90
23371;DHT22;11858;51.056;3.712;2022-10-13T15:41:13;15.20;99.90
23371;DHT22;11858;51.056;3.712;2022-10-13T15:43:40;15.20;99.90
23371;DHT22;11858;51.056;3.712;2022-10-13T15:46:15;15.10;99.90
23371;DHT22;11858;51.056;3.712;2022-10-13T15:48:50;15.10;99.90
23371;DHT22;11858;51.056;3.712;2022-10-13T15:51:18;15.10;99.90
23371;DHT22;11858;51.056;3.712;2022-10-13T15:53:45;15.10;99.90
23371;DHT22;11858;51.056;3.712;2022-10-13T15:56:10;15.10;99.90
23371;DHT22;11858;51.056;3.712;2022-10-13T15:58:36;15.00;99.90
23371;DHT22;11858;51.056;3.712;2022-10-13T16:01:09;15.10;99.90
23371;DHT22;11858;51.056;3.712;2022-10-13T16:03:35;15.00;99.90
23371;DHT22;11858;51.056;3.712;2022-10-13T16:06:03;15.00;99.90
23371;DHT22;11858;51.056;3.712;2022-10-13T16:08:29;14.90;99.90
23371;DHT22;11858;51.056;3.712;2022-10-13T16:10:55;14.90;99.90
23371;DHT22;11858;51.056;3.712;2022-10-13T16:13:21;15.00;99.90
23371;DHT22;11858;51.056;3.712;2022-10-13T16:15:59;15.10;99.90
23371;DHT22;11858;51.056;3.712;2022-10-13T16:18:35;15.10;99.90
23371;DHT22;11858;51.056;3.712;2022-10-13T16:21:21;15.00;99.90
23371;DHT22;11858;51.056;3.712;2022-10-13T16:23:48;15.00;99.90
23371;DHT22;11858;51.056;3.712;2022-10-13T16:26:14;15.00;99.90
23371;DHT22;11858;51.056;3.712;2022-10-13T16:28:41;15.10;99.90
23371;DHT22;11858;51.056;3.712;2022-10-13T16:31:10;15.00;99.90
23371;DHT22;11858;51.056;3.712;2022-10-13T16:33:40;15.00;99.90
23371;DHT22;11858;51.056;3.712;2022-10-13T16:36:08;15.00;99.90
23371;DHT22;11858;51.056;3.712;2022-10-13T16:38:35;15.00;99.90
23371;DHT22;11858;51.056;3.712;2022-10-13T16:41:05;14.90;99.90
23371;DHT22;11858;51.056;3.712;2022-10-13T16:43:32;14.90;99.90
23371;DHT22;11858;51.056;3.712;2022-10-13T16:46:00;14.90;99.90
23371;DHT22;11858;51.056;3.712;2022-10-13T16:48:26;14.90;99.90
23371;DHT22;11858;51.056;3.712;2022-10-13T16:50:53;14.90;99.90
23371;DHT22;11858;51.056;3.712;2022-10-13T16:53:19;14.90;99.90
23371;DHT22;11858;51.056;3.712;2022-10-13T16:55:45;14.90;99.90
23371;DHT22;11858;51.056;3.712;2022-10-13T16:58:11;14.90;99.90
23371;DHT22;11858;51.056;3.712;2022-10-13T17:00:37;14.90;99.90
23371;DHT22;11858;51.056;3.712;2022-10-13T17:03:03;14.90;99.90
23371;DHT22;11858;51.056;3.712;2022-10-13T17:05:29;14.90;99.90
23371;DHT22;11858;51.056;3.712;2022-10-13T17:07:55;14.80;99.90
23371;DHT22;11858;51.056;3.712;2022-10-13T17:10:20;14.80;99.90
23371;DHT22;11858;51.056;3.712;2022-10-13T17:12:46;14.80;99.90
23371;DHT22;11858;51.056;3.712;2022-10-13T17:15:13;14.70;99.90
23371;DHT22;11858;51.056;3.712;2022-10-13T17:17:39;14.70;99.90
23371;DHT22;11858;51.056;3.712;2022-10-13T17:20:05;14.80;99.90
23371;DHT22;11858;51.056;3.712;2022-10-13T17:22:32;14.80;99.90